createdAt,value
2023-04-28T00:00:29.802Z,29.00
2023-04-28T00:02:57.019Z,26.52
2023-04-28T00:05:25.151Z,28.73
2023-04-28T00:07:52.182Z,29.90
2023-04-28T00:10:18.930Z,25.38
2023-04-28T00:12:45.824Z,28.23
2023-04-28T00:15:13.464Z,29.33
2023-04-28T00:17:40.290Z,27.92
2023-04-28T00:20:08.229Z,30.40
2023-04-28T00:22:35.218Z,28.35
2023-04-28T00:25:02.127Z,25.85
2023-04-28T00:27:47.603Z,26.60
2023-04-28T00:30:33.108Z,26.45
2023-04-28T00:33:00.251Z,24.80
2023-04-28T00:35:27.094Z,24.88
2023-04-28T00:37:54.033Z,24.77
2023-04-28T00:40:40.076Z,24.85
2023-04-28T00:43:07.456Z,28.13
2023-04-28T00:45:34.920Z,28.75
2023-04-28T00:48:20.333Z,25.95
2023-04-28T00:50:48.595Z,26.13
2023-04-28T00:53:34.332Z,28.48
2023-04-28T00:56:20.125Z,26.65
2023-04-28T00:58:46.933Z,26.70
2023-04-28T01:01:13.977Z,28.63
2023-04-28T01:03:41.694Z,27.13
2023-04-28T01:06:28.669Z,25.35
2023-04-28T01:08:58.096Z,27.80
2023-04-28T01:11:25.241Z,29.50
2023-04-28T01:14:12.536Z,30.33
2023-04-28T01:16:42.301Z,28.63
2023-04-28T01:19:22.172Z,28.98
2023-04-28T01:21:50.959Z,30.17
2023-04-28T01:24:21.580Z,31.65
2023-04-28T01:26:48.696Z,30.13
2023-04-28T01:29:16.670Z,28.40
2023-04-28T01:31:43.606Z,27.65
2023-04-28T01:34:28.859Z,28.02
2023-04-28T01:36:56.355Z,30.38
2023-04-28T01:39:23.204Z,31.48
2023-04-28T01:41:49.957Z,29.65
2023-04-28T01:44:17.095Z,32.53
2023-04-28T01:46:44.148Z,30.33
2023-04-28T01:49:11.132Z,29.38
2023-04-28T01:51:37.937Z,29.50
2023-04-28T01:54:05.047Z,30.13
2023-04-28T01:56:31.963Z,30.13
2023-04-28T01:58:59.872Z,29.77
2023-04-28T02:05:46.233Z,32.30
2023-04-28T02:08:13.111Z,29.90
2023-04-28T02:10:39.906Z,29.67
2023-04-28T02:13:06.775Z,29.17
2023-04-28T02:15:33.814Z,30.98
2023-04-28T02:18:00.607Z,30.67
2023-04-28T02:20:27.753Z,32.55
2023-04-28T02:22:54.714Z,28.98
2023-04-28T02:25:22.629Z,29.98
2023-04-28T02:27:49.490Z,29.50
2023-04-28T02:30:16.463Z,31.33
2023-04-28T02:32:43.314Z,28.63
2023-04-28T02:35:10.253Z,28.63
2023-04-28T02:37:37.268Z,29.50
2023-04-28T02:40:04.436Z,31.50
2023-04-28T02:42:31.206Z,29.00
2023-04-28T02:44:57.993Z,31.05
2023-04-28T02:47:25.392Z,32.00
2023-04-28T02:49:52.328Z,31.80
2023-04-28T02:52:19.134Z,29.45
2023-04-28T02:54:49.021Z,30.52
2023-04-28T02:57:16.895Z,32.15
2023-04-28T02:59:43.699Z,28.55
2023-04-28T03:02:10.606Z,29.98
2023-04-28T03:04:37.502Z,28.05
2023-04-28T03:07:04.519Z,28.63
2023-04-28T03:09:31.309Z,28.05
2023-04-28T03:11:58.182Z,28.30
2023-04-28T03:14:25.360Z,28.08
2023-04-28T03:16:52.101Z,29.73
2023-04-28T03:19:18.873Z,26.10
2023-04-28T03:21:46.364Z,28.13
2023-04-28T03:24:13.892Z,28.02
2023-04-28T03:26:59.140Z,29.85
2023-04-28T03:29:26.055Z,30.02
2023-04-28T03:31:52.991Z,28.45
2023-04-28T03:34:19.959Z,30.60
2023-04-28T03:36:46.842Z,31.95
2023-04-28T03:39:22.502Z,30.58
2023-04-28T03:41:49.396Z,28.48
2023-04-28T03:44:45.516Z,28.55
2023-04-28T03:47:13.432Z,30.83
2023-04-28T03:49:40.884Z,30.67
2023-04-28T03:52:07.790Z,30.75
2023-04-28T03:54:34.895Z,30.77
2023-04-28T03:57:20.046Z,31.63
2023-04-28T03:59:46.923Z,29.48
2023-04-28T04:02:13.713Z,29.40
2023-04-28T04:04:40.839Z,31.05
2023-04-28T04:07:08.872Z,27.88
2023-04-28T04:09:36.009Z,28.77
2023-04-28T04:12:03.056Z,32.88
2023-04-28T04:14:29.994Z,27.85
2023-04-28T04:16:57.515Z,29.85
2023-04-28T04:19:26.427Z,30.00
2023-04-28T04:21:54.513Z,30.75
2023-04-28T04:24:21.428Z,28.42
2023-04-28T04:26:48.671Z,30.45
2023-04-28T04:29:34.323Z,30.52
2023-04-28T04:32:06.701Z,30.17
2023-04-28T04:34:34.073Z,27.20
2023-04-28T04:37:01.748Z,32.17
2023-04-28T04:39:29.061Z,30.98
2023-04-28T04:41:55.896Z,30.38
2023-04-28T04:44:39.065Z,29.80
2023-04-28T04:47:11.562Z,30.60
2023-04-28T04:49:39.093Z,26.85
2023-04-28T04:52:07.070Z,32.05
2023-04-28T04:54:34.911Z,30.92
2023-04-28T04:57:02.581Z,27.23
2023-04-28T04:59:58.292Z,29.20
2023-04-28T05:02:26.151Z,28.95
2023-04-28T05:04:54.655Z,32.55
2023-04-28T05:07:27.039Z,31.80
2023-04-28T05:09:54.116Z,29.92
2023-04-28T05:12:41.867Z,26.25
2023-04-28T05:15:10.025Z,28.98
2023-04-28T05:17:56.075Z,26.75
2023-04-28T05:20:23.801Z,28.77
2023-04-28T05:22:51.636Z,27.48
2023-04-28T05:25:18.787Z,30.83
2023-04-28T05:27:51.512Z,27.90
2023-04-28T05:30:18.599Z,31.33
2023-04-28T05:32:46.531Z,30.23
2023-04-28T05:35:15.118Z,31.40
2023-04-28T05:37:43.615Z,32.92
2023-04-28T05:40:10.923Z,30.42
2023-04-28T05:42:37.867Z,28.48
2023-04-28T05:45:06.883Z,29.77
2023-04-28T05:47:33.913Z,28.70
2023-04-28T05:50:00.871Z,31.73
2023-04-28T05:52:27.969Z,32.17
2023-04-28T05:55:13.460Z,31.35
2023-04-28T05:57:51.881Z,31.95
2023-04-28T06:00:20.102Z,28.65
2023-04-28T06:02:47.189Z,29.35
2023-04-28T06:05:14.440Z,30.65
2023-04-28T06:08:00.226Z,29.20
2023-04-28T06:10:27.133Z,30.20
2023-04-28T06:12:53.957Z,28.02
2023-04-28T06:15:20.986Z,33.05
2023-04-28T06:17:48.402Z,29.00
2023-04-28T06:20:16.712Z,29.48
2023-04-28T06:22:43.839Z,27.95
2023-04-28T06:25:10.673Z,30.50
2023-04-28T06:27:46.622Z,29.02
2023-04-28T06:30:22.423Z,28.48
2023-04-28T06:32:49.439Z,30.05
2023-04-28T06:35:16.744Z,27.90
2023-04-28T06:37:43.590Z,28.45
2023-04-28T06:40:11.162Z,25.33
2023-04-28T06:42:41.505Z,26.60
2023-04-28T06:45:12.059Z,27.02
2023-04-28T06:47:40.793Z,26.63
2023-04-28T06:50:09.710Z,27.77
2023-04-28T06:52:39.481Z,29.75
2023-04-28T06:55:10.493Z,29.20
2023-04-28T06:57:38.308Z,29.85
2023-04-28T07:00:06.295Z,30.52
2023-04-28T07:02:33.214Z,29.75
2023-04-28T07:05:00.169Z,30.60
2023-04-28T07:07:26.932Z,28.23
2023-04-28T07:09:53.726Z,29.52
2023-04-28T07:12:22.145Z,27.52
2023-04-28T07:14:50.617Z,26.02
2023-04-28T07:17:17.556Z,27.05
2023-04-28T07:19:44.472Z,28.13
2023-04-28T07:22:11.327Z,26.25
2023-04-28T07:24:38.113Z,25.48
2023-04-28T07:27:05.083Z,26.08
2023-04-28T07:29:34.241Z,22.83
2023-04-28T07:32:02.023Z,28.15
2023-04-28T07:34:28.941Z,29.05
2023-04-28T07:36:56.572Z,28.73
2023-04-28T07:39:23.354Z,27.60
2023-04-28T07:41:50.261Z,27.73
2023-04-28T07:44:17.356Z,28.02
2023-04-28T07:46:44.349Z,30.20
2023-04-28T07:49:11.118Z,30.20
2023-04-28T07:51:37.909Z,31.95
2023-04-28T07:54:04.765Z,31.00
2023-04-28T07:56:31.586Z,32.30
2023-04-28T07:58:58.447Z,30.65
2023-04-28T08:01:25.515Z,34.05
2023-04-28T08:03:52.581Z,27.17
2023-04-28T08:06:19.933Z,30.52
2023-04-28T08:08:47.207Z,30.25
2023-04-28T08:11:14.087Z,29.52
2023-04-28T08:13:41.278Z,27.23
2023-04-28T08:16:08.419Z,28.05
2023-04-28T08:18:35.788Z,28.38
2023-04-28T08:21:02.630Z,31.80
2023-04-28T08:23:31.876Z,31.60
2023-04-28T08:25:58.912Z,29.55
2023-04-28T08:28:26.118Z,29.88
2023-04-28T08:30:54.458Z,30.92
2023-04-28T08:33:21.460Z,29.60
2023-04-28T08:35:48.147Z,28.27
2023-04-28T08:38:17.535Z,28.92
2023-04-28T08:40:44.430Z,29.58
2023-04-28T08:43:12.603Z,31.23
2023-04-28T08:45:43.571Z,30.08
2023-04-28T08:48:20.311Z,28.42
2023-04-28T08:50:53.515Z,36.03
2023-04-28T08:53:28.016Z,27.30
2023-04-28T08:55:57.011Z,29.15
2023-04-28T08:58:25.785Z,29.30
2023-04-28T09:00:53.857Z,32.60
2023-04-28T09:03:21.504Z,32.17
2023-04-28T09:05:49.181Z,31.67
2023-04-28T09:08:16.108Z,29.95
2023-04-28T09:10:42.973Z,29.45
2023-04-28T09:13:09.902Z,29.63
2023-04-28T09:15:40.952Z,29.55
2023-04-28T09:18:08.641Z,32.65
2023-04-28T09:20:37.238Z,28.98
2023-04-28T09:23:18.464Z,30.65
2023-04-28T09:26:03.931Z,28.30
2023-04-28T09:28:32.118Z,29.02
2023-04-28T09:30:58.855Z,28.20
2023-04-28T09:33:26.017Z,30.65
2023-04-28T09:35:53.558Z,29.70
2023-04-28T09:38:22.337Z,29.13
2023-04-28T09:40:54.545Z,28.40
2023-04-28T09:43:26.708Z,31.13
2023-04-28T09:45:54.796Z,31.52
2023-04-28T09:48:38.610Z,34.35
2023-04-28T09:51:07.745Z,31.88
2023-04-28T09:53:35.638Z,29.98
2023-04-28T09:56:05.390Z,31.95
2023-04-28T09:58:35.411Z,33.10
2023-04-28T10:01:03.185Z,30.13
2023-04-28T10:03:31.141Z,30.83
2023-04-28T10:05:59.251Z,29.42
2023-04-28T10:08:27.433Z,29.02
2023-04-28T10:10:54.976Z,28.30
2023-04-28T10:13:23.293Z,30.10
2023-04-28T10:15:51.542Z,31.27
2023-04-28T10:18:18.841Z,30.83
2023-04-28T10:21:03.792Z,33.45
2023-04-28T10:23:36.448Z,35.00
2023-04-28T10:26:04.064Z,33.55
2023-04-28T10:28:30.817Z,34.38
2023-04-28T10:31:21.496Z,34.17
2023-04-28T10:33:49.806Z,33.10
2023-04-28T10:36:51.227Z,36.40
2023-04-28T10:39:18.073Z,32.58
2023-04-28T10:41:48.902Z,33.97
2023-04-28T10:44:42.640Z,34.55
2023-04-28T10:49:55.326Z,32.72
2023-04-28T10:52:37.871Z,34.63
2023-04-28T10:55:27.257Z,36.33
2023-04-28T10:58:16.015Z,33.85
2023-04-28T11:00:45.307Z,33.45
2023-04-28T11:03:46.621Z,37.15
2023-04-28T11:06:45.735Z,35.58
2023-04-28T11:09:12.409Z,35.92
2023-04-28T11:11:40.658Z,35.35
2023-04-28T11:14:19.494Z,36.85
2023-04-28T11:17:08.298Z,34.67
2023-04-28T11:19:39.180Z,34.38
2023-04-28T11:22:23.898Z,34.20
2023-04-28T11:24:57.968Z,33.45
2023-04-28T11:27:26.780Z,40.42
2023-04-28T11:29:54.079Z,29.17
2023-04-28T11:32:34.898Z,32.97
2023-04-28T11:35:02.229Z,30.15
2023-04-28T11:37:28.978Z,30.23
2023-04-28T11:39:55.756Z,28.27
2023-04-28T11:42:22.486Z,30.33
2023-04-28T11:44:54.454Z,26.30
2023-04-28T11:47:33.377Z,26.15
2023-04-28T11:50:01.402Z,28.05
2023-04-28T11:52:28.253Z,25.85
2023-04-28T11:54:57.541Z,25.90
2023-04-28T11:57:25.413Z,28.42
2023-04-28T11:59:52.347Z,22.95
2023-04-28T12:02:30.298Z,27.42
2023-04-28T12:05:04.783Z,23.73
2023-04-28T12:07:42.296Z,24.50
2023-04-28T12:10:15.675Z,26.10
2023-04-28T12:12:51.017Z,26.05
2023-04-28T12:15:20.827Z,26.60
2023-04-28T12:17:48.820Z,24.13
2023-04-28T12:20:36.305Z,25.33
2023-04-28T12:23:03.149Z,25.60
2023-04-28T12:25:30.130Z,25.67
2023-04-28T12:28:07.646Z,27.88
2023-04-28T12:30:44.014Z,27.45
2023-04-28T12:33:29.519Z,25.08
2023-04-28T12:35:57.677Z,21.88
2023-04-28T12:38:25.321Z,21.50
2023-04-28T12:40:52.381Z,22.05
2023-04-28T12:43:19.443Z,22.08
2023-04-28T12:45:46.313Z,21.65
2023-04-28T12:48:13.172Z,25.38
2023-04-28T12:50:39.893Z,26.55
2023-04-28T12:53:06.824Z,25.65
2023-04-28T12:55:33.678Z,25.00
2023-04-28T12:58:00.448Z,22.17
2023-04-28T13:00:27.296Z,27.13
2023-04-28T13:02:54.308Z,27.85
2023-04-28T13:05:21.213Z,27.23
2023-04-28T13:07:49.261Z,25.75
2023-04-28T13:10:16.368Z,26.23
2023-04-28T13:12:43.367Z,28.30
2023-04-28T13:15:11.228Z,25.08
2023-04-28T13:17:38.090Z,26.30
2023-04-28T13:20:05.565Z,26.38
2023-04-28T13:22:32.365Z,27.77
2023-04-28T13:24:59.182Z,27.70
2023-04-28T13:27:26.051Z,26.40
2023-04-28T13:29:52.775Z,26.10
2023-04-28T13:32:19.725Z,26.90
2023-04-28T13:34:47.062Z,25.55
2023-04-28T13:37:13.959Z,25.55
2023-04-28T13:39:41.169Z,26.75
2023-04-28T13:42:07.980Z,24.27
2023-04-28T13:44:35.041Z,25.55
2023-04-28T13:47:02.155Z,26.63
2023-04-28T13:49:29.228Z,27.75
2023-04-28T13:51:56.403Z,26.95
2023-04-28T13:54:23.257Z,27.35
2023-04-28T13:56:50.299Z,25.27
2023-04-28T13:59:17.127Z,24.95
2023-04-28T14:01:44.166Z,21.35
2023-04-28T14:04:11.179Z,20.75
2023-04-28T14:06:38.366Z,22.90
2023-04-28T14:09:05.371Z,23.48
2023-04-28T14:11:32.088Z,21.33
2023-04-28T14:13:58.851Z,26.08
2023-04-28T14:16:25.553Z,23.20
2023-04-28T14:18:52.733Z,19.77
2023-04-28T14:21:19.553Z,23.40
2023-04-28T14:23:46.785Z,20.80
2023-04-28T14:26:13.740Z,18.63
2023-04-28T14:28:40.850Z,22.33
2023-04-28T14:31:08.831Z,20.25
2023-04-28T14:33:36.025Z,23.88
2023-04-28T14:36:03.115Z,22.25
2023-04-28T14:38:30.835Z,22.52
2023-04-28T14:40:57.900Z,19.10
2023-04-28T14:43:24.866Z,21.05
2023-04-28T14:45:52.081Z,19.27
2023-04-28T14:48:19.215Z,24.25
2023-04-28T14:50:46.290Z,18.45
2023-04-28T14:53:13.090Z,22.73
2023-04-28T14:55:39.821Z,22.33
2023-04-28T14:58:06.706Z,22.83
2023-04-28T15:00:33.847Z,23.50
2023-04-28T15:03:00.974Z,23.35
2023-04-28T15:05:29.138Z,23.45
2023-04-28T15:07:59.195Z,18.70
2023-04-28T15:10:37.652Z,24.90
2023-04-28T15:13:07.146Z,19.00
2023-04-28T15:15:37.277Z,22.38
2023-04-28T15:18:05.017Z,19.05
2023-04-28T15:20:37.547Z,22.08
2023-04-28T15:23:04.799Z,20.90
2023-04-28T15:25:31.515Z,23.42
2023-04-28T15:27:58.284Z,22.20
2023-04-28T15:30:26.504Z,23.90
2023-04-28T15:32:53.759Z,23.17
2023-04-28T15:35:22.045Z,25.20
2023-04-28T15:37:52.105Z,24.35
2023-04-28T15:40:19.719Z,24.38
2023-04-28T15:42:52.011Z,22.02
2023-04-28T15:45:21.766Z,23.38
2023-04-28T15:47:50.601Z,22.88
2023-04-28T15:50:19.546Z,24.38
2023-04-28T15:52:47.870Z,23.10
2023-04-28T15:55:16.637Z,21.33
2023-04-28T15:57:44.419Z,24.38
2023-04-28T16:00:12.070Z,22.92
2023-04-28T16:02:39.617Z,26.25
2023-04-28T16:05:07.289Z,25.17
2023-04-28T16:07:44.365Z,19.75
2023-04-28T16:10:16.737Z,17.83
2023-04-28T16:12:43.749Z,22.05
2023-04-28T16:15:12.809Z,19.65
2023-04-28T16:17:40.739Z,19.15
2023-04-28T16:20:09.962Z,21.77
2023-04-28T16:22:37.745Z,21.92
2023-04-28T16:25:05.419Z,23.17
2023-04-28T16:27:32.934Z,24.52
2023-04-28T16:30:01.386Z,24.27
2023-04-28T16:32:28.870Z,22.20
2023-04-28T16:34:58.824Z,21.35
2023-04-28T16:37:26.400Z,22.52
2023-04-28T16:39:53.234Z,24.00
2023-04-28T16:42:22.775Z,20.95
2023-04-28T16:44:52.524Z,26.27
2023-04-28T16:47:19.763Z,24.02
2023-04-28T16:49:46.735Z,21.75
2023-04-28T16:52:16.724Z,24.13
2023-04-28T16:54:43.574Z,22.55
2023-04-28T16:57:10.401Z,24.55
2023-04-28T16:59:37.243Z,19.73
2023-04-28T17:02:04.110Z,23.17
2023-04-28T17:04:31.648Z,20.25
2023-04-28T17:06:59.472Z,21.30
2023-04-28T17:09:27.474Z,23.33
2023-04-28T17:11:54.995Z,28.10
2023-04-28T17:14:21.836Z,25.23
2023-04-28T17:16:48.543Z,22.30
2023-04-28T17:19:15.441Z,24.05
2023-04-28T17:21:42.396Z,23.05
2023-04-28T17:24:09.352Z,23.33
2023-04-28T17:26:36.458Z,22.15
2023-04-28T17:29:03.980Z,24.58
2023-04-28T17:31:31.121Z,21.60
2023-04-28T17:33:59.863Z,20.77
2023-04-28T17:36:27.241Z,22.40
2023-04-28T17:38:55.398Z,24.70
2023-04-28T17:41:22.821Z,23.75
2023-04-28T17:43:53.529Z,28.33
2023-04-28T17:46:21.080Z,24.58
2023-04-28T17:48:47.973Z,23.48
2023-04-28T17:51:14.847Z,26.67
2023-04-28T17:53:42.484Z,26.30
2023-04-28T17:56:09.537Z,25.60
2023-04-28T17:58:37.449Z,21.13
2023-04-28T18:01:06.088Z,27.05
2023-04-28T18:03:35.603Z,26.42
2023-04-28T18:06:04.485Z,25.92
2023-04-28T18:08:31.294Z,25.45
2023-04-28T18:10:58.225Z,26.38
2023-04-28T18:13:24.949Z,25.85
2023-04-28T18:15:51.753Z,24.17
2023-04-28T18:18:19.562Z,28.88
2023-04-28T18:20:47.366Z,24.60
2023-04-28T18:23:14.156Z,28.27
2023-04-28T18:25:41.564Z,29.05
2023-04-28T18:28:10.285Z,26.67
2023-04-28T18:30:39.700Z,29.10
2023-04-28T18:33:08.750Z,26.52
2023-04-28T18:35:36.916Z,27.20
2023-04-28T18:38:05.152Z,27.88
2023-04-28T18:40:37.778Z,27.45
2023-04-28T18:43:06.249Z,27.05
2023-04-28T18:45:39.060Z,22.25
2023-04-28T18:48:07.165Z,26.92
2023-04-28T18:50:34.310Z,26.88
2023-04-28T18:53:01.280Z,28.27
2023-04-28T18:55:28.262Z,27.30
2023-04-28T18:57:55.169Z,28.33
2023-04-28T19:00:22.700Z,30.38
2023-04-28T19:02:49.670Z,32.33
2023-04-28T19:05:16.504Z,30.33
2023-04-28T19:07:43.490Z,26.65
2023-04-28T19:10:10.942Z,28.52
2023-04-28T19:12:37.725Z,28.92
2023-04-28T19:15:05.990Z,22.10
2023-04-28T19:17:32.857Z,27.00
2023-04-28T19:19:59.838Z,25.90
2023-04-28T19:22:37.474Z,28.80
2023-04-28T19:25:06.951Z,29.23
2023-04-28T19:27:39.835Z,27.15
2023-04-28T19:30:10.918Z,32.63
2023-04-28T19:32:38.593Z,29.80
2023-04-28T19:35:06.748Z,28.40
2023-04-28T19:37:34.936Z,27.40
2023-04-28T19:40:06.065Z,26.02
2023-04-28T19:42:34.819Z,30.40
2023-04-28T19:45:01.976Z,27.95
2023-04-28T19:47:33.709Z,30.05
2023-04-28T19:50:00.645Z,26.17
2023-04-28T19:52:27.966Z,32.30
2023-04-28T19:54:54.917Z,31.75
2023-04-28T19:57:22.024Z,27.30
2023-04-28T19:59:49.761Z,28.42
2023-04-28T20:02:17.206Z,28.83
2023-04-28T20:04:44.285Z,29.65
2023-04-28T20:07:11.461Z,28.67
2023-04-28T20:09:38.908Z,26.58
2023-04-28T20:12:08.669Z,28.88
2023-04-28T20:14:37.070Z,24.58
2023-04-28T20:17:05.460Z,26.67
2023-04-28T20:19:32.350Z,30.40
2023-04-28T20:21:59.209Z,27.00
2023-04-28T20:24:26.156Z,32.33
2023-04-28T20:26:54.593Z,28.80
2023-04-28T20:29:21.596Z,29.00
2023-04-28T20:31:48.693Z,27.48
2023-04-28T20:34:15.551Z,27.00
2023-04-28T20:36:44.007Z,26.58
2023-04-28T20:39:11.750Z,26.65
2023-04-28T20:41:41.020Z,28.45
2023-04-28T20:44:08.497Z,23.92
2023-04-28T20:46:35.658Z,28.77
2023-04-28T20:49:04.231Z,28.63
2023-04-28T20:51:33.616Z,30.23
2023-04-28T20:54:01.573Z,28.08
2023-04-28T20:56:28.548Z,27.45
2023-04-28T20:58:55.807Z,27.92
2023-04-28T21:01:22.660Z,28.95
2023-04-28T21:03:49.756Z,29.55
2023-04-28T21:06:16.798Z,28.30
2023-04-28T21:08:44.017Z,27.70
2023-04-28T21:11:15.515Z,24.40
2023-04-28T21:13:43.003Z,27.35
2023-04-28T21:16:16.466Z,27.23
2023-04-28T21:18:46.907Z,28.98
2023-04-28T21:21:14.170Z,29.45
2023-04-28T21:23:41.010Z,30.48
2023-04-28T21:26:07.872Z,28.20
2023-04-28T21:28:35.762Z,29.08
2023-04-28T21:31:04.092Z,26.10
2023-04-28T21:33:31.999Z,30.70
2023-04-28T21:35:58.990Z,31.58
2023-04-28T21:38:25.977Z,31.80
2023-04-28T21:40:52.877Z,30.38
2023-04-28T21:43:20.060Z,27.15
2023-04-28T21:45:46.982Z,30.58
2023-04-28T21:48:13.922Z,26.58
2023-04-28T21:50:40.769Z,30.58
2023-04-28T21:53:07.639Z,30.92
2023-04-28T21:55:34.452Z,32.60
2023-04-28T21:58:01.152Z,31.60
2023-04-28T22:00:28.124Z,34.10
2023-04-28T22:02:56.568Z,31.17
2023-04-28T22:05:25.042Z,32.40
2023-04-28T22:07:52.077Z,28.15
2023-04-28T22:10:19.336Z,28.88
2023-04-28T22:12:46.746Z,28.23
2023-04-28T22:15:13.682Z,30.05
2023-04-28T22:17:40.702Z,30.42
2023-04-28T22:20:08.401Z,31.90
2023-04-28T22:22:35.417Z,29.15
2023-04-28T22:25:02.285Z,33.03
2023-04-28T22:27:30.545Z,33.78
2023-04-28T22:29:58.788Z,31.35
2023-04-28T22:32:29.273Z,36.17
2023-04-28T22:34:56.085Z,31.20
2023-04-28T22:37:23.057Z,30.92
2023-04-28T22:39:50.078Z,33.03
2023-04-28T22:42:17.141Z,28.63
2023-04-28T22:44:44.099Z,32.83
2023-04-28T22:47:10.864Z,31.70
2023-04-28T22:49:37.695Z,31.13
2023-04-28T22:52:04.759Z,29.98
2023-04-28T22:54:31.988Z,28.45
2023-04-28T22:56:59.301Z,26.73
2023-04-28T22:59:26.706Z,31.10
2023-04-28T23:01:54.738Z,29.65
2023-04-28T23:04:22.518Z,31.42
2023-04-28T23:06:49.552Z,29.77
2023-04-28T23:09:16.404Z,32.58
2023-04-28T23:11:43.246Z,27.65
2023-04-28T23:14:10.745Z,30.50
2023-04-28T23:16:37.831Z,32.17
2023-04-28T23:19:04.950Z,32.38
2023-04-28T23:21:34.302Z,31.88
2023-04-28T23:24:01.099Z,30.27
2023-04-28T23:26:27.978Z,31.63
2023-04-28T23:28:54.784Z,32.10
2023-04-28T23:31:21.683Z,31.13
2023-04-28T23:33:48.485Z,32.17
2023-04-28T23:36:15.206Z,29.58
2023-04-28T23:38:42.071Z,32.20
2023-04-28T23:41:09.067Z,31.10
2023-04-28T23:43:36.232Z,34.13
2023-04-28T23:46:03.055Z,29.27
2023-04-28T23:48:29.927Z,31.13
2023-04-28T23:50:56.739Z,31.13
2023-04-28T23:53:23.474Z,34.17
2023-04-28T23:55:50.461Z,35.03
2023-04-28T23:58:17.457Z,35.63
